• Join FlightAware (Why Join?)
  • Login
  • US Flag 
02:57PM EDT


 

Airport Tracker/Info


-or-


 

Live Flight TrackerFlight Track Log ✈ TAM3457 ✈ 01-Sep-2013 ✈ SBGO / GYN - SBGR / GRU

Flight Track Log - Related Links

Times and Time Zones

All times are in EDT time to prevent confusion due to time zone crossing. See the TAM3457 flight status page for this flight to view local times or setup timezone preferences in your user account.

Time Position Orientation Groundspeed Altitude Reporting Facility
EDT Latitude Longitude Course Direction KTS MPH feet Rate Location/Type
10:20AM -16.6840 -49.1450 142° Southeast 237 273 5,000  Level FlightAware
10:20AM -16.7010 -49.1420 170° South 240 276 5,800 2,640 Climbing FlightAware
10:20AM -16.7190 -49.1420 180° South 248 285 6,300 1,800 Climbing FlightAware
10:21AM -16.7500 -49.1400 176° South 276 318 7,000 2,160 Climbing FlightAware
10:21AM -16.7720 -49.1390 178° South 281 323 7,800 3,000 Climbing FlightAware
10:21AM -16.8010 -49.1380 178° South 269 310 9,200 3,000 Climbing FlightAware
10:22AM -16.8420 -49.1370 179° South 277 319 10,600 1,140 Climbing FlightAware
10:23AM -16.8950 -49.1360 179° South 282 325 10,700 60 Climbing FlightAware
10:23AM -16.9340 -49.1360 180° South 282 325 10,700  Level FlightAware
10:24AM -16.9750 -49.1350 179° South 282 325 10,700 3,420 Level FlightAware
10:25AM -17.1370 -49.1050 170° South 362 417 17,100 3,240 Climbing FlightAware
10:26AM -17.1950 -49.0840 161° South 364 419 17,100  Level FlightAware
10:26AM -17.2470 -49.0650 161° South 364 419 17,100  Level FlightAware
10:27AM -17.2940 -49.0480 161° South 364 419 17,100  Level FlightAware
10:28AM -17.3360 -49.0330 161° South 364 419 17,100  Level FlightAware
10:28AM -17.3860 -49.0150 161° South 364 419 17,100 4,560 Level FlightAware
10:29AM -17.5190 -48.9690 162° South 425 489 23,100 5,640 Climbing FlightAware
10:29AM -17.5930 -48.9430 161° South 435 501 24,100 1,560 Climbing FlightAware
10:30AM -17.6730 -48.9150 162° South 445 512 25,000 1,380 Climbing FlightAware
10:31AM -17.7380 -48.8920 161° South 450 518 25,800 1,200 Climbing FlightAware
10:31AM -17.8080 -48.8670 161° South 461 531 26,400 960 Climbing FlightAware
10:32AM -17.8710 -48.8450 162° South 471 542 26,900 1,140 Climbing FlightAware
10:32AM -17.9500 -48.8170 161° South 476 548 27,700 1,020 Climbing FlightAware
10:33AM -17.9910 -48.8020 161° South 479 551 28,100 540 Climbing FlightAware
10:34AM -18.0240 -48.7900 161° South 481 554 28,400 1,500 Climbing FlightAware
10:34AM -18.1750 -48.7360 161° South 480 552 30,100 2,160 Climbing FlightAware
10:35AM -18.2440 -48.7120 162° South 477 549 30,900 1,080 Climbing FlightAware
10:35AM -18.2960 -48.6940 162° South 478 550 31,400 960 Climbing FlightAware
10:36AM -18.3740 -48.6650 161° South 479 551 32,100 1,080 Climbing FlightAware
10:36AM -18.4430 -48.6410 162° South 481 554 32,700 1,320 Climbing FlightAware
10:37AM -18.5200 -48.6130 161° South 474 545 33,700 1,500 Climbing FlightAware
10:38AM -18.6130 -48.5800 161° South 469 540 34,700 1,380 Climbing FlightAware
10:38AM -18.7010 -48.5480 161° South 466 536 35,500 960 Climbing FlightAware
10:39AM -18.7550 -48.5290 162° South 472 543 35,700 420 Climbing FlightAware
10:39AM -18.8320 -48.5020 162° South 474 545 36,000 180 Climbing FlightAware
10:40AM -18.9180 -48.4710 161° South 472 543 36,000  Level FlightAware
10:41AM -18.9990 -48.4420 161° South 471 542 36,000  Level FlightAware
10:41AM -19.0440 -48.4250 160° South 465 535 36,000  Level FlightAware
10:42AM -19.1360 -48.3920 161° South 460 529 36,000 -120 Level FlightAware
10:42AM -19.1980 -48.3700 161° South 460 529 35,900  Descending FlightAware
10:43AM -19.2740 -48.3420 161° South 462 532 36,000 60 Climbing FlightAware
10:44AM -19.3330 -48.3210 161° South 469 540 36,000  Level FlightAware
10:44AM -19.4230 -48.2880 161° South 471 542 36,000  Level FlightAware
10:45AM -19.4850 -48.2660 162° South 473 544 36,000  Level FlightAware
10:45AM -19.5710 -48.2350 161° South 470 541 36,000  Level FlightAware
10:46AM -19.6340 -48.2120 161° South 467 537 36,000  Level FlightAware
10:46AM -19.7020 -48.1870 161° South 463 533 36,000  Level FlightAware
10:47AM -19.7840 -48.1570 161° South 458 527 36,000  Level FlightAware
10:48AM -19.8380 -48.1380 162° South 457 526 36,000  Level FlightAware
10:48AM -19.9190 -48.1080 161° South 457 526 36,000  Level FlightAware
10:49AM -19.9780 -48.0870 162° South 458 527 36,000  Level FlightAware
10:49AM -20.0440 -48.0620 160° South 457 526 36,000  Level FlightAware
10:50AM -20.1270 -48.0320 161° South 458 527 36,000  Level FlightAware
10:51AM -20.2010 -48.0050 161° South 458 527 36,000  Level FlightAware
10:51AM -20.2710 -47.9800 161° South 458 527 36,000  Level FlightAware
10:52AM -20.3410 -47.9540 161° South 458 527 36,000  Level FlightAware
10:52AM -20.4130 -47.9280 161° South 459 528 36,000  Level FlightAware
10:53AM -20.4900 -47.8990 161° South 459 528 36,000  Level FlightAware
10:53AM -20.5470 -47.8780 161° South 458 527 36,000  Level FlightAware
10:54AM -20.6150 -47.8530 161° South 457 526 36,000  Level FlightAware
10:55AM -20.6930 -47.8250 161° South 456 525 36,000  Level FlightAware
10:55AM -20.7580 -47.8010 161° South 456 525 36,000  Level FlightAware
10:56AM -20.8360 -47.7720 161° South 457 526 36,000  Level FlightAware
10:56AM -20.9030 -47.7470 161° South 457 526 36,000  Level FlightAware
10:57AM -20.9700 -47.7220 161° South 458 527 36,000  Level FlightAware
10:58AM -21.0350 -47.6980 161° South 458 527 36,000  Level FlightAware
10:58AM -21.1120 -47.6700 161° South 460 529 36,000  Level FlightAware
10:59AM -21.1870 -47.6420 161° South 461 531 36,000  Level FlightAware
10:59AM -21.2720 -47.6110 161° South 461 531 36,000  Level FlightAware
11:00AM -21.3350 -47.5870 160° South 461 531 36,000  Level FlightAware
11:01AM -21.4130 -47.5580 161° South 460 529 36,000  Level FlightAware
11:01AM -21.4750 -47.5350 161° South 458 527 36,000  Level FlightAware
11:02AM -21.5530 -47.5060 161° South 455 524 36,000  Level FlightAware
11:02AM -21.6200 -47.4810 161° South 454 522 36,000  Level FlightAware
11:03AM -21.6850 -47.4570 161° South 454 522 36,000 -540 Level FlightAware
11:04AM -21.7570 -47.4300 161° South 459 528 35,400 -1,740 Descending FlightAware
11:04AM -21.8300 -47.4020 160° South 458 527 33,900 -2,400 Descending FlightAware
11:05AM -21.9050 -47.3740 161° South 452 520 32,500 -2,340 Descending FlightAware
11:05AM -21.9710 -47.3490 161° South 446 513 31,300 -2,100 Descending FlightAware
11:06AM -22.0390 -47.3230 160° South 439 505 30,100 -2,040 Descending FlightAware
11:06AM -22.1030 -47.2960 159° South 432 497 28,900 -2,040 Descending FlightAware
11:07AM -22.1710 -47.2670 158° South 421 484 27,600 -2,160 Descending FlightAware
11:08AM -22.2450 -47.2370 159° South 404 465 26,200 -1,800 Descending FlightAware
11:08AM -22.2830 -47.2210 159° South 396 456 25,600 -1,620 Descending FlightAware
11:09AM -22.3580 -47.1900 159° South 395 455 24,400 -1,920 Descending FlightAware
11:09AM -22.4160 -47.1660 159° South 392 451 23,300 -1,980 Descending FlightAware
11:10AM -22.4800 -47.1390 159° South 388 447 22,100 -2,100 Descending FlightAware
11:11AM -22.5330 -47.1160 158° South 387 445 21,000 -1,560 Descending FlightAware
11:11AM -22.6150 -47.0810 158° South 367 422 20,000 -1,260 Descending FlightAware
11:12AM -22.6710 -47.0570 158° South 354 407 19,200 -1,680 Descending FlightAware
11:13AM -22.7180 -47.0320 154° Southeast 365 420 18,100 -2,100 Descending FlightAware
11:13AM -22.7280 -47.0200 132° Southeast 365 420 17,900 -1,320 Descending FlightAware
11:13AM -22.7370 -47.0030 120° Southeast 365 420 17,700 -840 Descending FlightAware
11:14AM -22.7620 -46.9460 115° Southeast 353 406 17,200 -660 Descending FlightAware
11:14AM -22.7860 -46.8980 118° Southeast 347 399 17,000 -360 Descending FlightAware
11:14AM -22.7990 -46.8860 140° Southeast 342 394 17,000  Level FlightAware
11:15AM -22.8440 -46.8610 153° Southeast 307 353 17,000 -600 Level FlightAware
11:15AM -22.8830 -46.8380 151° Southeast 297 342 16,400 -960 Descending FlightAware
11:16AM -22.9070 -46.8240 152° Southeast 297 342 16,000 -1,260 Descending FlightAware
11:16AM -22.9670 -46.7910 153° Southeast 291 335 14,900 -1,680 Descending FlightAware
11:17AM -23.0160 -46.7630 152° Southeast 287 330 14,000 -1,320 Descending FlightAware
11:18AM -23.0540 -46.7430 154° Southeast 281 323 13,400 -1,260 Descending FlightAware
11:18AM -23.0930 -46.7210 153° Southeast 282 325 12,600 -1,380 Descending FlightAware
11:19AM -23.1360 -46.6970 153° Southeast 276 318 11,800 -1,500 Descending FlightAware
11:19AM -23.1660 -46.6740 145° Southeast 285 328 11,000 -1,440 Descending FlightAware
11:20AM -23.1840 -46.6250 112° Southeast 279 321 10,300 -1,320 Descending FlightAware
11:20AM -23.1920 -46.5990 109° East 279 321 9,800 -1,260 Descending FlightAware
11:21AM -23.2030 -46.5670 111° Southeast 278 320 9,200 -1,380 Descending FlightAware
11:21AM -23.2160 -46.5300 111° Southeast 279 321 8,600 -1,560 Descending FlightAware
11:21AM -23.2240 -46.5050 109° East 273 314 8,200 -1,260 Descending FlightAware
11:22AM -23.2380 -46.4650 111° Southeast 270 311 7,500 -1,020 Descending FlightAware
11:23AM -23.2530 -46.4220 111° Southeast 249 287 7,100 -900 Descending FlightAware
11:23AM -23.2630 -46.3920 110° East 247 284 6,600 -1,080 Descending FlightAware
11:23AM -23.2670 -46.3810 112° Southeast 247 284 6,400 -1,260 Descending FlightAware
11:24AM -23.2770 -46.3520 111° Southeast 244 281 5,900 -660 Descending FlightAware
11:24AM -23.2870 -46.3230 111° Southeast 241 277 5,900 -240 Level FlightAware
11:24AM -23.2960 -46.2950 109° East 227 261 5,700 -480 Descending FlightAware
11:25AM -23.3040 -46.2730 112° Southeast 208 239 5,600 -420 Descending FlightAware
11:25AM -23.3150 -46.2500 118° Southeast 199 229 5,400 -540 Descending FlightAware
11:25AM -23.3220 -46.2460 152° Southeast 200 230 5,300 -300 Descending FlightAware
11:25AM -23.3290 -46.2440 165° South 199 229 5,300 -420 Level FlightAware
11:26AM -23.3480 -46.2500 196° South 183 211 5,100 -360 Descending FlightAware
11:26AM -23.3580 -46.2560 209° Southwest 168 193 5,100 -300 Level FlightAware
11:26AM -23.3750 -46.2660 208° Southwest 153 176 4,900 -420 Descending FlightAware
11:27AM -23.3780 -46.2690 223° Southwest 148 170 4,900  Level FlightAware
11:27AM -23.3810 -46.2760 245° Southwest 145 167 4,900  Level FlightAware
11:27AM -23.3860 -46.2940 253° West 151 174 4,900  Level FlightAware
11:27AM -23.3890 -46.3050 253° West 152 175 4,900  Level FlightAware
11:28AM -23.3910 -46.3120 253° West 148 170 4,900 -540 Level FlightAware
11:28AM -23.3960 -46.3300 253° West 150 173 4,600 -840 Descending FlightAware
11:28AM -23.4000 -46.3450 254° West 152 175 4,300 -720 Descending FlightAware
11:29AM -23.4060 -46.3650 252° West 142 163 4,000 -660 Descending FlightAware
11:29AM -23.4110 -46.3840 254° West 139 160 3,700 -780 Descending FlightAware
11:30AM -23.4140 -46.3950 253° West 140 161 3,500 -840 Descending FlightAware
11:30AM -23.4190 -46.4150 255° West 140 161 3,100 -480 Descending FlightAware
11:30AM -23.4230 -46.4300 254° West 140 161 3,100  Level FlightAware
11:33AM -23.4321 -46.4695 256° West  Level Estimated
11:34AM -23.4321 -46.4695 190° South  Level Estimated
11:34AM -23.4360 -46.4830 190° South  Level FlightAware